Time;durP1;ratioP1;P1;durP2;ratioP2;P2;SDS_P1;SDS_P2;PMS_P1;PMS_P2;Temp;Humidity;BMP_temperature;BMP_pressure;BME280_temperature;BME280_humidity;BME280_pressure;Samples;Min_cycle;Max_cycle;Signal;HPM_P1;HPM_P2
2022/10/19 00:05:41;;;;;;;10.25;8.20;;;15.00;99.90;;;;;;5136144;28;20222;-90
2022/10/19 00:18:42;;;;;;;7.78;6.88;;;15.10;99.90;;;;;;5125495;27;20206;-90
2022/10/19 00:24:11;;;;;;;9.63;6.60;;;14.90;99.90;;;;;;5138483;27;20198;-90
2022/10/19 00:30:46;;;;;;;9.68;7.38;;;14.90;99.90;;;;;;5135658;27;20584;-90
2022/10/19 00:33:46;;;;;;;10.57;6.72;;;14.90;99.90;;;;;;5120569;27;20251;-89
2022/10/19 00:39:54;;;;;;;9.10;6.85;;;15.00;99.90;;;;;;5135085;27;20538;-90
2022/10/19 00:43:10;;;;;;;10.05;7.43;;;15.00;99.90;;;;;;5140689;27;20199;-90
2022/10/19 00:49:13;;;;;;;10.15;7.15;;;14.90;99.90;;;;;;5127370;27;20190;-91
2022/10/19 00:51:55;;;;;;;10.43;7.10;;;14.90;99.90;;;;;;5139506;27;20195;-90
2022/10/19 00:54:23;;;;;;;9.05;6.65;;;14.90;99.90;;;;;;5125413;27;20221;-91
2022/10/19 00:56:55;;;;;;;10.05;6.88;;;14.90;99.90;;;;;;5126472;27;20306;-91
2022/10/19 01:09:29;;;;;;;10.10;6.90;;;14.60;99.90;;;;;;5135164;27;20662;-89
2022/10/19 01:12:16;;;;;;;10.60;6.80;;;14.60;99.90;;;;;;5137465;27;20202;-89
2022/10/19 01:15:29;;;;;;;8.27;6.28;;;14.50;99.90;;;;;;5124181;27;20251;-89
2022/10/19 01:18:32;;;;;;;9.68;6.50;;;14.40;99.90;;;;;;5130165;27;20195;-89
2022/10/19 01:24:37;;;;;;;7.45;6.18;;;14.50;99.90;;;;;;5129226;27;20226;-91
2022/10/19 01:27:37;;;;;;;9.55;6.25;;;14.50;99.90;;;;;;5114094;28;20283;-90
2022/10/19 01:30:13;;;;;;;7.35;6.20;;;14.50;99.90;;;;;;5110773;28;20204;-90
2022/10/19 01:33:10;;;;;;;10.18;5.93;;;14.40;99.90;;;;;;5087150;28;20242;-91
2022/10/19 01:35:57;;;;;;;9.90;6.50;;;14.40;99.90;;;;;;5108161;28;20215;-91
2022/10/19 01:38:55;;;;;;;10.38;6.20;;;14.40;99.90;;;;;;5113654;28;20212;-90
2022/10/19 01:41:31;;;;;;;6.90;6.10;;;14.40;99.90;;;;;;5109739;28;20188;-90
2022/10/19 01:44:03;;;;;;;9.35;5.97;;;14.30;99.90;;;;;;5109420;28;20198;-90
2022/10/19 01:46:55;;;;;;;11.13;6.07;;;14.30;99.90;;;;;;5115697;28;20202;-91
2022/10/19 01:52:59;;;;;;;9.57;5.70;;;14.30;99.90;;;;;;5121744;27;20646;-90
2022/10/19 01:55:41;;;;;;;7.65;6.00;;;14.40;99.90;;;;;;5131176;27;20210;-91
2022/10/19 01:58:16;;;;;;;12.73;6.40;;;14.30;99.90;;;;;;5129484;27;20251;-90
2022/10/19 02:00:45;;;;;;;10.73;6.38;;;14.30;99.90;;;;;;5129724;27;20199;-90
2022/10/19 02:03:19;;;;;;;9.55;6.28;;;14.20;99.90;;;;;;5121092;27;20204;-89
2022/10/19 02:06:06;;;;;;;9.77;6.13;;;14.20;99.90;;;;;;5135186;27;20642;-91
2022/10/19 02:08:40;;;;;;;6.97;5.80;;;14.40;99.90;;;;;;5121750;27;20192;-90
2022/10/19 02:11:29;;;;;;;6.10;5.50;;;14.40;99.90;;;;;;5137417;27;20310;-91
2022/10/19 02:14:41;;;;;;;7.65;6.18;;;14.60;99.90;;;;;;5137111;27;20191;-90
2022/10/19 02:17:21;;;;;;;7.95;6.47;;;14.70;99.90;;;;;;5123642;27;20256;-91
2022/10/19 02:19:49;;;;;;;9.30;6.20;;;14.70;99.90;;;;;;5128047;27;20202;-90
2022/10/19 02:22:16;;;;;;;8.20;7.10;;;14.70;99.90;;;;;;5141619;27;20285;-89
2022/10/19 02:25:28;;;;;;;9.20;7.13;;;14.70;99.90;;;;;;5143416;27;20264;-89
2022/10/19 02:28:40;;;;;;;7.00;6.30;;;14.70;99.90;;;;;;5130535;27;20282;-90
2022/10/19 02:31:24;;;;;;;7.03;6.32;;;14.80;99.90;;;;;;5116653;27;20282;-91
2022/10/19 02:34:22;;;;;;;9.43;7.40;;;14.90;99.90;;;;;;5136827;27;20191;-90
2022/10/19 02:37:07;;;;;;;9.10;8.20;;;14.90;99.90;;;;;;5134025;27;20219;-90
2022/10/19 02:43:48;;;;;;;12.02;8.95;;;14.90;99.90;;;;;;5113919;28;20196;-90
2022/10/19 02:46:23;;;;;;;10.63;8.00;;;14.90;99.90;;;;;;5116091;27;20207;-90
2022/10/19 02:49:01;;;;;;;10.13;7.75;;;14.80;99.90;;;;;;5129968;27;20285;-90
2022/10/19 02:54:54;;;;;;;12.95;9.98;;;14.90;99.90;;;;;;5143992;27;20676;-91
2022/10/19 03:07:35;;;;;;;14.23;11.07;;;15.10;99.90;;;;;;5116209;27;20207;-91
2022/10/19 03:20:24;;;;;;;14.57;10.30;;;15.00;99.90;;;;;;5115706;28;20218;-90
2022/10/19 03:27:04;;;;;;;21.98;15.77;;;14.90;99.90;;;;;;5124464;27;20278;-90
2022/10/19 03:29:31;;;;;;;19.27;16.10;;;14.90;99.90;;;;;;5128337;27;20238;-90
2022/10/19 03:35:20;;;;;;;18.25;15.65;;;14.80;99.90;;;;;;5124257;27;20175;-90
2022/10/19 03:38:00;;;;;;;22.40;16.70;;;14.80;99.90;;;;;;5126261;27;20279;-90
2022/10/19 03:43:49;;;;;;;23.35;16.95;;;14.80;99.90;;;;;;5125998;27;20634;-90
2022/10/19 03:46:35;;;;;;;20.20;17.08;;;14.80;99.90;;;;;;5121283;27;20287;-91
2022/10/19 03:56:08;;;;;;;19.33;16.60;;;14.60;99.90;;;;;;5130738;28;20204;-91
2022/10/19 04:01:58;;;;;;;17.45;15.48;;;14.70;99.90;;;;;;5124784;28;20242;-89
2022/10/19 04:07:47;;;;;;;18.17;14.48;;;14.70;99.90;;;;;;5124265;28;20198;-90
2022/10/19 04:10:52;;;;;;;17.77;15.63;;;14.70;99.90;;;;;;5129390;28;20260;-89
2022/10/19 04:13:57;;;;;;;18.88;15.88;;;14.50;99.90;;;;;;5121068;28;20302;-90
2022/10/19 04:16:47;;;;;;;17.33;14.85;;;14.40;99.90;;;;;;5133048;27;20218;-90
2022/10/19 04:22:47;;;;;;;17.30;15.45;;;14.40;99.90;;;;;;5129766;27;20186;-90
2022/10/19 04:25:17;;;;;;;17.60;14.77;;;14.50;99.90;;;;;;5120234;27;20232;-90
2022/10/19 04:28:16;;;;;;;17.83;15.77;;;14.50;99.90;;;;;;5132346;27;20227;-90
2022/10/19 04:30:55;;;;;;;20.83;15.27;;;14.60;99.90;;;;;;5121816;28;20275;-90
2022/10/19 04:34:04;;;;;;;17.17;15.32;;;14.60;99.90;;;;;;5136529;27;20202;-90
2022/10/19 04:36:41;;;;;;;16.55;14.75;;;14.50;99.90;;;;;;5127115;28;20212;-90
2022/10/19 04:39:17;;;;;;;18.42;15.73;;;14.40;99.90;;;;;;5119054;27;20188;-91
2022/10/19 04:42:28;;;;;;;18.02;15.65;;;14.40;99.90;;;;;;5132365;28;20199;-90
2022/10/19 04:45:06;;;;;;;17.67;14.77;;;14.40;99.90;;;;;;5135425;27;20203;-92
2022/10/19 04:48:00;;;;;;;17.80;15.35;;;14.40;99.90;;;;;;5123109;27;20206;-90
2022/10/19 04:50:41;;;;;;;18.00;16.10;;;14.40;99.90;;;;;;5128001;28;20198;-91
2022/10/19 04:53:36;;;;;;;21.05;16.38;;;14.40;99.90;;;;;;5132239;28;20286;-91
2022/10/19 04:59:53;;;;;;;17.40;15.38;;;14.40;99.90;;;;;;5128894;27;20190;-90
2022/10/19 05:05:45;;;;;;;21.13;17.55;;;14.50;99.90;;;;;;5134680;27;20214;-89
2022/10/19 05:11:34;;;;;;;16.15;13.55;;;14.60;99.90;;;;;;5126454;27;20540;-90
2022/10/19 05:14:34;;;;;;;17.73;14.15;;;14.70;99.90;;;;;;5135141;27;20278;-90
2022/10/19 05:17:01;;;;;;;19.13;13.82;;;14.60;99.90;;;;;;5135300;27;20211;-90
2022/10/19 05:35:41;;;;;;;15.45;12.15;;;14.40;99.90;;;;;;5116007;28;20241;-88
2022/10/19 05:41:36;;;;;;;16.80;12.32;;;14.40;99.90;;;;;;5108148;28;20179;-90
2022/10/19 05:47:32;;;;;;;15.57;11.77;;;14.40;99.90;;;;;;5136136;27;20661;-90
2022/10/19 05:53:21;;;;;;;18.65;12.10;;;14.50;99.90;;;;;;5094316;28;20195;-90
2022/10/19 05:56:13;;;;;;;22.95;14.88;;;14.50;99.90;;;;;;5111484;27;20203;-90
2022/10/19 06:02:13;;;;;;;22.00;13.57;;;14.40;99.90;;;;;;5137732;27;20671;-90
2022/10/19 06:22:51;;;;;;;25.48;16.02;;;14.60;99.90;;;;;;5044830;28;20230;-91
2022/10/19 06:25:34;;;;;;;25.00;15.05;;;14.80;99.90;;;;;;5047941;28;20259;-89
2022/10/19 06:31:30;;;;;;;21.67;14.60;;;14.90;99.90;;;;;;5054741;28;20632;-91
2022/10/19 06:34:11;;;;;;;23.40;15.90;;;15.00;99.90;;;;;;5052129;28;20190;-88
2022/10/19 06:36:38;;;;;;;21.65;14.48;;;15.10;99.90;;;;;;5049822;28;20214;-90
2022/10/19 06:39:07;;;;;;;20.48;14.45;;;15.30;99.90;;;;;;5051112;28;20229;-89
2022/10/19 06:45:14;;;;;;;31.30;19.30;;;15.30;99.90;;;;;;5054991;28;20608;-90
2022/10/19 06:51:06;;;;;;;24.95;16.55;;;15.10;99.90;;;;;;5047959;28;20204;-89
2022/10/19 06:54:28;;;;;;;25.10;17.35;;;15.20;99.90;;;;;;5036204;28;20187;-90
2022/10/19 06:56:57;;;;;;;24.27;16.45;;;15.30;99.90;;;;;;5046590;28;20305;-90
2022/10/19 07:00:19;;;;;;;26.00;17.40;;;15.30;99.90;;;;;;5055136;28;20201;-90
2022/10/19 07:02:59;;;;;;;24.23;16.63;;;15.30;99.90;;;;;;5052659;28;20599;-90
2022/10/19 07:09:28;;;;;;;32.83;19.30;;;15.30;99.90;;;;;;5045704;28;20185;-90
2022/10/19 07:12:12;;;;;;;27.63;18.33;;;15.30;99.90;;;;;;5043536;28;20740;-90
2022/10/19 07:18:52;;;;;;;28.80;19.60;;;15.30;99.90;;;;;;5053377;28;20224;-90
2022/10/19 07:21:21;;;;;;;25.88;18.88;;;15.30;99.90;;;;;;5054012;28;20240;-90
2022/10/19 07:27:18;;;;;;;27.15;19.88;;;15.30;99.90;;;;;;5038014;28;20553;-90
2022/10/19 07:33:46;;;;;;;28.35;19.83;;;15.40;99.90;;;;;;5036452;28;20225;-90
2022/10/19 07:39:38;;;;;;;25.10;20.25;;;15.50;99.90;;;;;;5055278;28;20235;-90
2022/10/19 07:42:53;;;;;;;23.63;18.85;;;15.60;99.90;;;;;;5054574;28;20645;-89
2022/10/19 07:48:55;;;;;;;24.40;19.85;;;15.70;99.90;;;;;;5054095;28;20193;-89
2022/10/19 07:58:06;;;;;;;32.60;23.45;;;15.70;99.90;;;;;;5044052;28;20217;-89
2022/10/19 08:00:35;;;;;;;33.70;24.77;;;15.60;99.90;;;;;;5054627;28;20212;-88
2022/10/19 08:03:11;;;;;;;29.42;23.90;;;15.60;99.90;;;;;;5055238;28;20201;-91
2022/10/19 08:09:01;;;;;;;32.78;26.48;;;15.60;99.90;;;;;;5051785;28;20181;-89
2022/10/19 08:11:47;;;;;;;34.78;26.23;;;15.50;99.90;;;;;;5044760;28;20288;-89
2022/10/19 08:14:29;;;;;;;34.92;25.20;;;15.40;99.90;;;;;;5044546;28;20214;-90
2022/10/19 08:20:48;;;;;;;32.92;24.90;;;15.60;99.90;;;;;;5040559;28;20270;-89
2022/10/19 08:30:30;;;;;;;39.03;24.85;;;15.80;99.90;;;;;;5051259;28;20197;-89
2022/10/19 08:33:29;;;;;;;37.13;26.13;;;15.80;99.90;;;;;;5043028;28;20688;-89
2022/10/19 08:39:23;;;;;;;30.05;22.63;;;16.10;99.90;;;;;;5038337;28;20193;-90
2022/10/19 08:45:27;;;;;;;33.50;23.58;;;16.20;99.90;;;;;;5057532;28;20518;-90
2022/10/19 08:52:10;;;;;;;35.65;22.05;;;16.30;99.90;;;;;;5043540;28;20185;-90
2022/10/19 08:58:26;;;;;;;30.95;22.25;;;16.50;99.90;;;;;;5057167;28;20247;-90
2022/10/19 09:04:21;;;;;;;25.25;18.65;;;16.60;99.40;;;;;;5056854;28;20180;-91
2022/10/19 09:10:18;;;;;;;29.05;20.10;;;16.90;98.00;;;;;;5076765;28;20214;-90
2022/10/19 09:16:57;;;;;;;27.80;19.08;;;16.70;98.70;;;;;;5061921;28;20184;-90
2022/10/19 09:19:30;;;;;;;26.05;19.65;;;16.70;99.10;;;;;;5068369;28;20201;-91
2022/10/19 09:22:32;;;;;;;26.15;19.77;;;16.80;98.60;;;;;;5047567;28;20202;-89
2022/10/19 09:28:39;;;;;;;20.83;17.45;;;17.20;97.40;;;;;;5056624;28;20235;-89
2022/10/19 09:34:33;;;;;;;20.20;15.55;;;17.10;97.40;;;;;;5047485;28;20224;-90
2022/10/19 09:41:17;;;;;;;18.30;15.32;;;17.20;97.40;;;;;;5059101;28;20249;-89
2022/10/19 09:43:59;;;;;;;19.45;14.88;;;17.20;96.90;;;;;;5055810;28;20697;-89
2022/10/19 09:50:08;;;;;;;17.63;14.55;;;16.90;97.40;;;;;;5036315;28;20170;-90
2022/10/19 09:59:31;;;;;;;17.67;14.75;;;16.70;97.30;;;;;;5055555;28;20198;-90
2022/10/19 10:59:52;;;;;;;18.50;15.73;;;16.90;95.60;;;;;;5093698;28;20258;-89
2022/10/19 11:02:59;;;;;;;16.80;14.35;;;16.90;95.80;;;;;;5107846;28;20219;-90
2022/10/19 11:14:49;;;;;;;21.40;15.60;;;17.00;95.30;;;;;;5059377;28;20224;-89
2022/10/19 11:30:57;;;;;;;15.93;14.10;;;17.20;94.80;;;;;;5072484;28;20542;-88
2022/10/19 11:36:58;;;;;;;15.07;12.32;;;17.40;93.70;;;;;;5064479;28;20658;-89
2022/10/19 11:39:54;;;;;;;13.35;11.43;;;17.40;93.60;;;;;;5068065;28;20260;-88
2022/10/19 11:42:33;;;;;;;16.98;12.48;;;17.50;93.00;;;;;;5051223;28;20198;-90
2022/10/19 11:45:10;;;;;;;11.93;10.68;;;17.60;92.60;;;;;;5069670;28;20200;-88
2022/10/19 11:48:00;;;;;;;13.05;11.02;;;17.80;91.60;;;;;;5074228;28;20636;-88
2022/10/19 11:50:44;;;;;;;11.43;9.60;;;17.80;91.30;;;;;;5067825;28;20201;-89
2022/10/19 11:53:21;;;;;;;10.02;9.02;;;17.90;90.80;;;;;;5079347;28;20193;-89
2022/10/19 11:56:13;;;;;;;8.55;7.72;;;18.00;90.60;;;;;;5074268;28;20215;-89
2022/10/19 11:59:03;;;;;;;8.82;7.93;;;18.30;84.70;;;;;;5058009;28;20221;-88
2022/10/19 12:01:46;;;;;;;7.95;6.97;;;18.40;84.60;;;;;;5072288;28;20718;-88
2022/10/19 12:04:50;;;;;;;6.97;6.38;;;18.50;81.40;;;;;;5076029;28;20908;-88
2022/10/19 12:10:57;;;;;;;6.20;5.60;;;18.60;80.90;;;;;;5082232;28;20237;-88
2022/10/19 12:14:17;;;;;;;6.15;5.55;;;18.70;79.90;;;;;;5099388;28;20291;-89
2022/10/19 12:16:48;;;;;;;8.27;6.00;;;18.70;76.20;;;;;;5092176;28;20200;-88
2022/10/19 12:20:05;;;;;;;6.10;5.50;;;18.60;78.30;;;;;;5093992;28;20204;-88
2022/10/19 12:23:00;;;;;;;5.82;5.32;;;18.40;79.60;;;;;;5093313;28;20676;-88
2022/10/19 12:25:29;;;;;;;6.35;5.63;;;18.20;79.50;;;;;;5089673;28;20674;-88
2022/10/19 12:28:03;;;;;;;6.60;4.68;;;18.30;79.60;;;;;;5090158;28;20299;-88
2022/10/19 12:30:30;;;;;;;6.43;5.72;;;18.10;79.50;;;;;;5091314;28;20203;-88
2022/10/19 12:33:14;;;;;;;6.38;4.93;;;18.00;82.30;;;;;;5091136;28;20192;-89
2022/10/19 12:39:20;;;;;;;6.00;4.90;;;17.80;81.20;;;;;;5097506;28;20537;-88
2022/10/19 12:45:33;;;;;;;5.32;4.82;;;17.50;84.70;;;;;;5077703;28;20667;-88
2022/10/19 12:52:07;;;;;;;8.43;5.50;;;17.40;86.80;;;;;;5097574;28;20160;-88
2022/10/19 13:01:43;;;;;;;6.85;6.25;;;17.40;90.00;;;;;;5097978;28;20213;-88
2022/10/19 13:17:45;;;;;;;10.40;7.25;;;18.10;86.40;;;;;;5035023;28;20218;-89
2022/10/19 13:31:08;;;;;;;9.18;8.20;;;18.20;84.20;;;;;;5032164;28;20191;-89
2022/10/19 13:33:52;;;;;;;8.07;7.28;;;18.10;85.80;;;;;;4975164;28;20287;-89
2022/10/19 13:36:31;;;;;;;8.60;7.70;;;18.40;85.80;;;;;;5022120;28;20202;-89
2022/10/19 13:39:41;;;;;;;7.65;6.88;;;18.40;84.80;;;;;;5036896;28;20301;-86
2022/10/19 13:42:23;;;;;;;8.07;7.28;;;18.40;83.70;;;;;;5031207;28;20282;-89
2022/10/19 13:48:23;;;;;;;5.32;4.82;;;18.10;83.70;;;;;;5040256;28;20564;-89
2022/10/19 13:57:53;;;;;;;5.15;4.20;;;18.10;79.50;;;;;;5041421;28;20185;-89
2022/10/19 14:00:21;;;;;;;5.47;4.97;;;18.10;81.10;;;;;;5051948;28;20198;-88
2022/10/19 14:06:50;;;;;;;5.18;4.13;;;18.30;79.60;;;;;;5026684;28;20213;-89
2022/10/19 14:09:46;;;;;;;5.35;4.15;;;18.40;78.70;;;;;;5036366;28;20202;-89
2022/10/19 14:12:33;;;;;;;7.88;4.05;;;18.30;79.60;;;;;;5038316;28;20759;-90
2022/10/19 14:15:16;;;;;;;4.40;4.00;;;18.40;79.70;;;;;;5052935;28;20216;-88
2022/10/19 14:18:22;;;;;;;5.63;3.33;;;18.40;77.50;;;;;;5055376;28;20560;-89
2022/10/19 14:21:11;;;;;;;4.05;3.47;;;18.40;79.00;;;;;;5057123;28;20212;-88
2022/10/19 14:23:53;;;;;;;7.38;4.00;;;18.20;78.30;;;;;;5047386;28;20190;-89
2022/10/19 14:26:28;;;;;;;4.68;4.18;;;18.20;77.50;;;;;;5052864;28;20198;-86
2022/10/19 14:28:57;;;;;;;7.43;4.03;;;18.10;78.90;;;;;;5048586;28;20202;-86
2022/10/19 14:31:49;;;;;;;7.22;3.70;;;18.00;79.40;;;;;;5055737;28;20206;-85
2022/10/19 14:34:16;;;;;;;3.92;3.42;;;18.00;79.40;;;;;;5043619;28;20197;-88
2022/10/19 14:36:46;;;;;;;5.15;4.18;;;17.90;79.30;;;;;;5051286;28;20603;-89
2022/10/19 14:39:32;;;;;;;7.15;4.05;;;17.80;79.30;;;;;;5051676;28;20218;-89
2022/10/19 14:42:04;;;;;;;5.53;4.00;;;17.70;80.50;;;;;;5053103;28;20186;-89
2022/10/19 14:44:38;;;;;;;5.55;4.15;;;17.60;80.60;;;;;;5052193;28;20197;-91
2022/10/19 14:50:41;;;;;;;8.35;4.40;;;17.20;84.80;;;;;;5050836;28;20185;-92
2022/10/19 14:53:35;;;;;;;4.95;4.50;;;17.10;85.80;;;;;;5059180;28;20261;-91
2022/10/19 14:56:23;;;;;;;5.13;4.38;;;17.00;86.70;;;;;;5058233;28;20198;-89
2022/10/19 14:58:54;;;;;;;6.03;4.40;;;16.90;87.70;;;;;;5062539;28;20636;-89
2022/10/19 15:07:39;;;;;;;6.40;4.68;;;16.70;89.80;;;;;;5056457;22;20689;-91
2022/10/19 15:20:24;;;;;;;5.72;4.70;;;16.90;89.30;;;;;;5017099;28;20226;-88
2022/10/19 15:22:53;;;;;;;7.10;4.65;;;17.00;88.70;;;;;;5039490;28;20220;-89
2022/10/19 15:25:41;;;;;;;6.32;5.55;;;17.00;89.20;;;;;;5050068;28;20297;-89
2022/10/19 15:28:33;;;;;;;6.75;6.05;;;17.00;89.10;;;;;;5040935;28;20290;-90
2022/10/19 15:34:53;;;;;;;6.90;5.60;;;16.80;89.90;;;;;;5037788;28;20228;-90
2022/10/19 15:41:05;;;;;;;5.85;5.25;;;16.70;90.20;;;;;;5043160;28;20658;-91
2022/10/19 15:43:38;;;;;;;6.25;5.00;;;16.60;90.60;;;;;;5034096;28;20191;-89
2022/10/19 15:46:25;;;;;;;6.10;5.00;;;16.50;91.10;;;;;;5050202;28;20654;-90
2022/10/19 15:48:53;;;;;;;8.23;4.80;;;16.60;90.80;;;;;;5035783;28;20266;-88
2022/10/19 15:54:56;;;;;;;6.20;4.25;;;16.70;89.70;;;;;;5037537;28;20177;-89
2022/10/19 15:57:40;;;;;;;6.18;4.68;;;16.60;90.10;;;;;;5019317;28;20203;-92
2022/10/19 16:00:13;;;;;;;5.75;5.07;;;16.50;90.40;;;;;;5032258;28;20219;-90
2022/10/19 16:02:42;;;;;;;5.18;4.55;;;16.50;90.60;;;;;;5035387;28;20198;-89
2022/10/19 16:05:10;;;;;;;6.13;4.85;;;16.40;90.60;;;;;;5040608;28;20248;-90
2022/10/19 16:07:48;;;;;;;5.03;4.50;;;16.40;91.00;;;;;;5047289;28;20227;-93
2022/10/19 16:10:25;;;;;;;5.05;4.45;;;16.30;91.30;;;;;;5053420;28;20285;-90
2022/10/19 16:13:01;;;;;;;5.53;5.03;;;16.30;91.40;;;;;;5043472;28;20204;-89
2022/10/19 16:22:35;;;;;;;6.40;5.03;;;16.00;91.70;;;;;;5057003;28;20719;-90
2022/10/19 16:25:18;;;;;;;5.32;4.82;;;15.90;91.70;;;;;;5053813;28;20193;-89
2022/10/19 16:27:54;;;;;;;5.30;4.80;;;15.80;92.20;;;;;;5046299;28;20198;-91
2022/10/19 16:30:31;;;;;;;5.40;4.90;;;15.70;92.80;;;;;;5051332;28;20568;-89
2022/10/19 16:32:58;;;;;;;6.00;5.40;;;15.60;92.70;;;;;;5044565;28;20208;-90
2022/10/19 16:35:25;;;;;;;6.18;5.05;;;15.50;93.10;;;;;;5050055;28;20693;-87
2022/10/19 16:37:52;;;;;;;5.50;5.00;;;15.40;93.60;;;;;;5051027;28;20277;-89
2022/10/19 16:40:19;;;;;;;6.20;5.60;;;15.30;93.90;;;;;;5051068;28;20760;-89
2022/10/19 16:42:46;;;;;;;6.15;5.55;;;15.20;94.00;;;;;;5040796;28;20337;-89
2022/10/19 16:45:13;;;;;;;6.53;5.78;;;15.20;94.30;;;;;;5050367;28;20198;-90
2022/10/19 16:47:51;;;;;;;6.85;5.80;;;15.10;94.40;;;;;;5041385;28;20194;-88
2022/10/19 16:50:18;;;;;;;6.68;5.97;;;15.10;94.80;;;;;;5052384;28;20289;-89
2022/10/19 16:53:05;;;;;;;7.20;6.35;;;15.00;95.10;;;;;;5052288;28;20194;-89
2022/10/19 16:56:06;;;;;;;8.43;6.18;;;14.80;95.20;;;;;;5046802;28;20205;-90
2022/10/19 16:58:35;;;;;;;9.40;6.03;;;14.70;95.70;;;;;;5053221;28;20206;-90
2022/10/19 17:01:07;;;;;;;7.90;6.50;;;14.60;95.80;;;;;;5046781;28;20554;-89
2022/10/19 17:03:36;;;;;;;6.93;6.15;;;14.60;96.20;;;;;;5051391;28;20641;-88
2022/10/19 17:06:06;;;;;;;7.32;6.30;;;14.50;96.40;;;;;;5045435;28;20604;-88
2022/10/19 17:08:48;;;;;;;7.55;6.43;;;14.50;96.80;;;;;;5053089;28;20260;-89
2022/10/19 17:11:19;;;;;;;8.02;6.70;;;14.60;96.60;;;;;;5053391;28;20209;-88
2022/10/19 17:13:48;;;;;;;7.90;6.63;;;14.50;96.80;;;;;;5055899;28;20324;-89
2022/10/19 17:16:17;;;;;;;8.27;6.50;;;14.50;96.80;;;;;;5054695;28;20206;-89
2022/10/19 17:18:51;;;;;;;7.28;6.57;;;14.60;96.80;;;;;;5053548;28;20241;-88
2022/10/19 17:21:38;;;;;;;8.05;7.03;;;14.60;96.70;;;;;;5052968;28;20218;-87
2022/10/19 17:24:06;;;;;;;8.68;6.35;;;14.70;96.20;;;;;;5048630;28;20204;-88
2022/10/19 17:26:36;;;;;;;11.20;6.93;;;14.70;96.10;;;;;;5054119;28;20212;-88
2022/10/19 17:29:04;;;;;;;8.38;6.70;;;14.80;95.90;;;;;;5050134;28;20218;-88
2022/10/19 17:31:31;;;;;;;8.02;7.15;;;14.90;95.50;;;;;;5056792;28;20293;-89
2022/10/19 17:34:00;;;;;;;11.73;7.65;;;14.90;95.20;;;;;;5052883;28;20204;-88
2022/10/19 17:36:29;;;;;;;12.23;8.20;;;14.90;95.00;;;;;;5052513;28;20340;-88
2022/10/19 17:38:58;;;;;;;11.88;7.72;;;15.00;95.20;;;;;;5055290;28;20225;-89
2022/10/19 17:41:26;;;;;;;10.40;8.77;;;14.90;95.00;;;;;;5051352;28;20289;-90
2022/10/19 17:43:54;;;;;;;13.82;9.98;;;14.90;95.10;;;;;;5054972;28;20281;-91
2022/10/19 17:46:47;;;;;;;14.55;9.40;;;14.90;94.80;;;;;;5061208;28;20262;-90
2022/10/19 17:49:19;;;;;;;14.02;9.65;;;14.80;95.00;;;;;;5050369;28;20198;-91
2022/10/19 17:51:53;;;;;;;11.52;8.93;;;14.70;95.30;;;;;;5059149;28;20204;-90
2022/10/19 17:54:19;;;;;;;10.10;8.90;;;14.70;95.30;;;;;;5063996;28;20194;-88
2022/10/19 17:56:46;;;;;;;12.25;8.75;;;14.60;95.30;;;;;;5048291;28;20195;-89
2022/10/19 17:59:14;;;;;;;9.32;8.00;;;14.60;95.20;;;;;;5055316;28;20309;-89
2022/10/19 18:01:42;;;;;;;12.00;8.43;;;14.50;95.30;;;;;;5054546;28;20209;-88
2022/10/19 18:04:12;;;;;;;9.52;7.70;;;14.50;95.30;;;;;;5054769;28;20285;-89
2022/10/19 18:06:40;;;;;;;9.15;7.57;;;14.40;95.40;;;;;;5049377;28;20217;-89
2022/10/19 18:09:12;;;;;;;9.02;7.10;;;14.30;95.60;;;;;;5044523;28;20208;-90
2022/10/19 18:11:41;;;;;;;8.80;7.18;;;14.20;95.60;;;;;;5055968;28;20296;-89
2022/10/19 18:14:09;;;;;;;9.43;6.47;;;14.20;95.70;;;;;;5060562;28;20289;-87
2022/10/19 18:16:39;;;;;;;7.18;6.47;;;14.10;95.90;;;;;;5054716;28;20200;-88
2022/10/19 18:19:07;;;;;;;7.30;6.50;;;14.00;96.40;;;;;;5057531;28;20636;-89
2022/10/19 18:21:37;;;;;;;8.27;6.63;;;13.90;96.60;;;;;;5054282;28;20225;-88
2022/10/19 18:24:08;;;;;;;7.43;6.60;;;13.80;96.60;;;;;;5053829;28;20198;-90
2022/10/19 18:26:35;;;;;;;7.43;6.35;;;13.80;96.60;;;;;;5045803;28;20294;-90
2022/10/19 18:29:10;;;;;;;6.72;6.03;;;13.70;96.60;;;;;;5056455;28;20217;-87
2022/10/19 18:32:05;;;;;;;7.15;6.20;;;13.70;96.60;;;;;;5059912;28;20210;-88
2022/10/19 18:34:42;;;;;;;12.15;6.07;;;13.60;96.60;;;;;;5051033;28;20341;-88
2022/10/19 18:37:12;;;;;;;8.45;6.03;;;13.50;97.10;;;;;;5060231;28;20197;-87
2022/10/19 18:39:49;;;;;;;6.57;5.88;;;13.40;97.70;;;;;;5058625;28;20535;-88
2022/10/19 18:42:18;;;;;;;7.68;6.32;;;13.30;98.00;;;;;;5060759;28;20260;-89
2022/10/19 18:45:11;;;;;;;8.10;6.40;;;13.30;98.40;;;;;;5059488;28;20604;-88
2022/10/19 18:47:38;;;;;;;8.63;6.40;;;13.20;98.50;;;;;;5066425;28;20249;-88
2022/10/19 18:50:30;;;;;;;9.85;6.25;;;13.20;98.50;;;;;;5064116;28;20709;-88
2022/10/19 18:52:57;;;;;;;8.50;6.35;;;13.10;98.70;;;;;;5073548;28;20533;-87
2022/10/19 18:55:59;;;;;;;7.22;6.28;;;13.00;98.80;;;;;;5075252;28;20222;-88
2022/10/19 18:58:27;;;;;;;7.68;6.43;;;13.00;98.90;;;;;;5064858;28;20189;-89
2022/10/19 19:01:25;;;;;;;7.97;6.70;;;13.00;98.90;;;;;;5065751;28;20222;-87
2022/10/19 19:04:17;;;;;;;8.38;6.68;;;12.90;99.00;;;;;;5059529;28;20244;-88
2022/10/19 19:06:44;;;;;;;6.65;5.95;;;12.90;99.20;;;;;;5065260;28;20245;-88
2022/10/19 19:29:00;;;;;;;6.60;5.85;;;12.90;99.10;;;;;;5064396;28;20216;-87
2022/10/19 19:31:28;;;;;;;9.48;5.90;;;13.00;99.00;;;;;;5052937;28;20436;-88
2022/10/19 19:34:01;;;;;;;9.15;6.40;;;13.00;99.00;;;;;;5043596;28;20202;-87
2022/10/19 19:36:46;;;;;;;9.23;6.07;;;13.00;98.70;;;;;;5063495;28;20288;-87
2022/10/19 19:45:59;;;;;;;8.20;6.35;;;12.70;99.40;;;;;;5060500;28;20206;-87
2022/10/19 19:51:51;;;;;;;8.63;6.38;;;12.50;99.60;;;;;;5066807;28;20312;-87
2022/10/19 20:01:37;;;;;;;8.02;6.82;;;12.30;99.90;;;;;;5060271;28;20225;-87
2022/10/19 20:30:03;;;;;;;12.23;7.18;;;12.00;99.90;;;;;;5102535;25;20235;-88
2022/10/19 20:32:30;;;;;;;8.32;7.00;;;11.90;99.90;;;;;;5068912;28;20203;-87
2022/10/19 20:34:57;;;;;;;7.88;7.07;;;11.90;99.90;;;;;;5088196;28;20215;-87
2022/10/19 20:38:17;;;;;;;7.60;6.78;;;11.80;99.90;;;;;;5095420;28;20265;-88
2022/10/19 20:40:48;;;;;;;7.65;6.85;;;11.80;99.90;;;;;;5103891;28;20252;-87
2022/10/19 20:43:59;;;;;;;8.93;7.55;;;11.80;99.90;;;;;;5104269;28;20633;-88
2022/10/19 20:50:19;;;;;;;11.75;7.78;;;11.70;99.90;;;;;;5101400;28;20188;-88
2022/10/19 20:53:35;;;;;;;10.50;7.38;;;11.60;99.90;;;;;;5092258;28;20268;-87
2022/10/19 20:59:26;;;;;;;8.77;7.82;;;11.50;99.90;;;;;;5089683;28;20184;-87
2022/10/19 21:02:06;;;;;;;11.98;8.23;;;11.50;99.90;;;;;;5102944;28;20197;-88
2022/10/19 21:04:36;;;;;;;11.52;8.10;;;11.50;99.90;;;;;;5093129;28;20224;-88
2022/10/19 21:07:53;;;;;;;11.15;8.68;;;11.40;99.90;;;;;;5100289;28;20279;-87
2022/10/19 21:10:43;;;;;;;11.93;8.05;;;11.40;99.90;;;;;;5098837;28;20696;-87
2022/10/19 21:13:12;;;;;;;10.70;8.85;;;11.40;99.90;;;;;;5101267;28;20269;-89
2022/10/19 21:16:08;;;;;;;13.60;9.25;;;11.30;99.90;;;;;;5100774;28;20279;-87
2022/10/19 21:19:07;;;;;;;12.88;8.50;;;11.30;99.90;;;;;;5099157;28;20709;-87
2022/10/19 21:21:38;;;;;;;11.50;9.50;;;11.30;99.90;;;;;;5098481;28;20208;-87
2022/10/19 21:24:41;;;;;;;13.02;9.18;;;11.30;99.90;;;;;;5100211;28;20275;-87
2022/10/19 21:27:10;;;;;;;15.50;8.98;;;11.30;99.90;;;;;;5099876;28;20738;-88
2022/10/19 21:29:37;;;;;;;12.32;9.75;;;11.20;99.90;;;;;;5102024;28;20236;-87
2022/10/19 21:32:06;;;;;;;12.00;9.75;;;11.20;99.90;;;;;;5102159;28;20207;-89
2022/10/19 21:34:50;;;;;;;14.32;9.27;;;11.20;99.90;;;;;;5101849;28;20229;-87
2022/10/19 21:37:30;;;;;;;14.88;9.38;;;11.20;99.90;;;;;;5087664;28;20193;-88
2022/10/19 21:40:23;;;;;;;12.43;9.35;;;11.10;99.90;;;;;;5099859;28;20295;-88
2022/10/19 21:46:42;;;;;;;11.32;9.43;;;11.10;99.90;;;;;;5090103;28;20211;-88
2022/10/19 21:49:36;;;;;;;11.90;10.07;;;11.00;99.90;;;;;;5093393;28;20201;-87
2022/10/19 21:52:02;;;;;;;12.95;10.15;;;11.00;99.90;;;;;;5084188;28;20712;-89
2022/10/19 21:55:24;;;;;;;12.43;9.80;;;11.00;99.90;;;;;;5098845;28;20291;-88
2022/10/19 21:58:01;;;;;;;12.85;9.85;;;11.00;99.90;;;;;;5082888;28;20188;-88
2022/10/19 22:00:36;;;;;;;13.02;10.57;;;11.00;99.90;;;;;;5096636;28;20698;-88
2022/10/19 22:03:12;;;;;;;12.45;9.45;;;11.10;99.90;;;;;;5097184;28;20663;-89
2022/10/19 22:12:44;;;;;;;13.23;10.52;;;10.80;99.90;;;;;;5099942;28;20191;-88
2022/10/19 22:29:01;;;;;;;15.10;11.05;;;10.80;99.90;;;;;;5099197;28;20183;-88
2022/10/19 22:32:05;;;;;;;15.98;11.50;;;10.70;99.90;;;;;;5091800;28;20283;-89
2022/10/19 22:42:00;;;;;;;14.38;11.27;;;10.70;99.90;;;;;;5097979;28;20203;-88
2022/10/19 22:44:43;;;;;;;16.83;12.38;;;10.70;99.90;;;;;;5092681;28;20283;-89